Details From EDDL - Duesseldorf
To EDLW - Dortmund-wickede
Flight Number -
Tags Generated
Created
Modified
Stats Distance 35 nm / 65 km
Max Altitude 0 ft / 0 m
Waypoints 2
Social Downloads 2
Likes 0
Share VATSIM

Download

Looking for another format? Having issues loading an existing format? Contact us
Advertisement - Login to hide

Notes

Generated

Route

EDDL EDLW

ID Type Via Altitude Latitude Longitude Leg Dist Tot Dist Heading (true) Name
O EDDL APT - 0 ft / 0 m 51.28373˚ 6.74873˚ - 0 nm - -
O EDLW APT - 0 ft / 0 m 51.51469˚ 7.60190˚ 34 nm 34 nm 66° / 67° -

Altitude Profile

Advertisement - Login to hide

EDDL

Details ICAO EDDL (DUS)
Name Duesseldorf
Region Germany - Civil
Timezone Europe/Berlin (UTC+1.0)
Stats Elevation 146 ft / 45 m (AMSL)
Location 51.289419° 6.766637°
Runways 2
Magnetic Variation 1.808° E

METAR

EDDL 171020Z 26005KT 240V300 4500 BR OVC003 02/01 Q1023 BECMG 7000 BKN006

Decode

TAF

TAF AMD EDDL 170721Z 1707/1812 24006KT 4000 BR BKN003 TEMPO 1707/1709 7000 BKN007 BECMG 1709/1712 9999 BKN015 BECMG 1715/1718 18011KT TEMPO 1721/1802 3500 RASN BKN012 PROB30 TEMPO 1723/1801 1400 SN OVC003 BECMG 1802/1804 BKN012 TEMPO 1802/1812 4000 -RADZ BKN006 PROB40 TEMPO 1804/1810 2000 DZRA BKN003 BECMG 1805/1808 33006KT

Decode

Departure Runways

ID Width Length Bearing (true) Bearing (mag) Surface Threshold Offset Overrun Length
05L 148 ft / 45 m 8,895 ft / 2,711 m 52.72° 50.91° Concrete 994 ft / 303 m 906 ft / 276 m
05R 148 ft / 45 m 9,858 ft / 3,005 m 52.68° 50.87° Concrete 984 ft / 300 m 659 ft / 201 m
23L 148 ft / 45 m 9,858 ft / 3,005 m 232.71° 230.90° Concrete 984 ft / 300 m 702 ft / 214 m
23R 148 ft / 45 m 8,895 ft / 2,711 m 232.75° 230.94° Concrete 971 ft / 296 m 928 ft / 283 m

EDLW

Details ICAO EDLW (DTM)
Name Dortmund-Wickede
Region Germany - Civil
Timezone Europe/Berlin (UTC+1.0)
Stats Elevation 425 ft / 130 m (AMSL)
Location 51.519107° 7.614447°
Runways 1
Magnetic Variation 2.059° E

METAR

EDLW 171020Z 24010KT 5000 OVC007 02/00 Q1022

Decode

TAF

TAF EDLW 170520Z 1706/1806 24007KT 9999 OVC007 TEMPO 1706/1709 BKN011 BECMG 1709/1712 SCT030 BECMG 1718/1721 21012KT TEMPO 1723/1803 4000 -SNRA PROB30 TEMPO 1800/1803 1400 SN OVC003 BECMG 1801/1804 BKN012 TEMPO 1803/1806 2500 RADZ BKN006

Decode

Destination Runways

ID Width Length Bearing (true) Bearing (mag) Surface Threshold Offset Overrun Length
06 148 ft / 45 m 6,546 ft / 1,995 m 60.50° 58.44° Asphalt 984 ft / 300 m 197 ft / 60 m
24 148 ft / 45 m 6,546 ft / 1,995 m 240.52° 238.46° Asphalt 984 ft / 300 m 197 ft / 60 m

Approach Navaids

Runway Type Ident Frequency Range Bearing (true) Bearing (mag) Slope Elevation
06 Localiser IDWE 109.15 MHz 18 nm / 33 km 60.52° 58.47° - 425 ft / 130 m (AMSL)
06 Glidescope IDWE 109.15 MHz 10 nm / 19 km 60.51° 58.45° 3.00° 425 ft / 130 m (AMSL)
24 Localiser IDWW 110.30 MHz 18 nm / 33 km 240.49° 238.43° - 425 ft / 130 m (AMSL)
24 Glidescope IDWW 110.30 MHz 10 nm / 19 km 240.51° 238.45° 3.00° 425 ft / 130 m (AMSL)

Popular Alternatives